Tampa, Florida
Traffic Map
Current Weather Conditions
Tampa, Florida
Overcast
Overcast
15°
Feels Like: 15°
Wind Chill: 15° Ceiling: 6500
Heat Index: 15° Visibility: 10mi
Dew Point: 12° Wind: 8mph
Humidity: 83% Direction: 50° (NE)
Pressure: 30.27in Gusts: 0mph
Raw Report DataKTPA 281153Z 05007KT 10SM FEW037 BKN065 OVC090 15/12 A3027 RMK AO2 SLP250 T01500122 10150 20133 53011
Traffic Incident Summary
Active as of:
Severity:
Category:
InformationThere was an issue retrieving the traffic information for this location. Please try a different location or try again shortly.
Advertisements
Track Severe Weather on mobile